createdAt,value
2022-07-31T00:00:28.673Z,50
2022-07-31T00:03:28.699Z,50
2022-07-31T00:06:28.662Z,50
2022-07-31T00:09:45.606Z,50
2022-07-31T00:12:28.654Z,50
2022-07-31T00:15:28.652Z,50
2022-07-31T00:18:28.668Z,50
2022-07-31T00:21:28.643Z,50
2022-07-31T00:24:28.656Z,50
2022-07-31T00:27:28.661Z,51
2022-07-31T00:30:28.654Z,51
2022-07-31T00:33:28.657Z,51
2022-07-31T00:36:30.087Z,51
2022-07-31T00:39:28.656Z,51
2022-07-31T00:42:28.661Z,51
2022-07-31T00:45:29.198Z,51
2022-07-31T00:48:28.657Z,51
2022-07-31T00:51:28.673Z,51
2022-07-31T00:54:28.662Z,51
2022-07-31T00:57:28.681Z,51
2022-07-31T01:00:28.679Z,51
2022-07-31T01:03:28.673Z,51
2022-07-31T01:06:28.673Z,51
2022-07-31T01:09:28.676Z,51
2022-07-31T01:12:28.673Z,51
2022-07-31T01:18:28.675Z,51
2022-07-31T01:21:28.660Z,51
2022-07-31T01:24:28.681Z,51
2022-07-31T01:27:28.681Z,52
2022-07-31T01:30:30.709Z,52
2022-07-31T01:33:28.681Z,52
2022-07-31T01:36:28.684Z,52
2022-07-31T01:39:33.718Z,52
2022-07-31T01:42:28.685Z,52
2022-07-31T01:45:28.675Z,52
2022-07-31T01:48:28.699Z,52
2022-07-31T01:51:28.673Z,52
2022-07-31T01:54:28.691Z,52
2022-07-31T01:57:28.696Z,52
2022-07-31T02:00:34.059Z,52
2022-07-31T02:03:43.240Z,52
2022-07-31T02:06:28.696Z,52
2022-07-31T02:12:32.357Z,52
2022-07-31T02:15:28.676Z,52
2022-07-31T02:18:28.687Z,52
2022-07-31T02:21:28.682Z,52
2022-07-31T02:24:28.700Z,52
2022-07-31T02:27:54.492Z,52
2022-07-31T02:30:38.738Z,53
2022-07-31T02:33:28.704Z,53
2022-07-31T02:36:28.679Z,53
2022-07-31T02:39:30.557Z,53
2022-07-31T02:42:28.698Z,53
2022-07-31T02:45:28.685Z,53
2022-07-31T02:48:28.695Z,53
2022-07-31T02:51:28.691Z,53
2022-07-31T02:54:28.702Z,53
2022-07-31T02:57:28.696Z,53
2022-07-31T03:00:28.759Z,53
2022-07-31T03:03:28.703Z,53
2022-07-31T03:06:28.683Z,53
2022-07-31T03:09:28.689Z,53
2022-07-31T03:12:28.729Z,53
2022-07-31T03:18:28.704Z,53
2022-07-31T03:21:28.693Z,53
2022-07-31T03:24:28.693Z,53
2022-07-31T03:27:28.714Z,53
2022-07-31T03:30:28.696Z,53
2022-07-31T03:33:28.691Z,53
2022-07-31T03:39:28.703Z,53
2022-07-31T03:42:28.712Z,53
2022-07-31T03:45:28.702Z,53
2022-07-31T03:48:28.704Z,53
2022-07-31T03:51:28.698Z,53
2022-07-31T03:54:28.698Z,53
2022-07-31T03:57:29.179Z,53
2022-07-31T04:00:28.700Z,53
2022-07-31T04:03:28.700Z,53
2022-07-31T04:06:28.701Z,53
2022-07-31T04:09:28.701Z,53
2022-07-31T04:12:28.714Z,53
2022-07-31T04:15:28.702Z,53
2022-07-31T04:18:28.700Z,53
2022-07-31T04:24:28.724Z,53
2022-07-31T04:27:28.722Z,53
2022-07-31T04:30:28.700Z,54
2022-07-31T04:33:28.725Z,54
2022-07-31T04:36:29.354Z,54
2022-07-31T04:39:28.706Z,54
2022-07-31T04:42:28.815Z,54
2022-07-31T04:45:28.705Z,54
2022-07-31T04:48:28.727Z,54
2022-07-31T04:51:28.721Z,54
2022-07-31T04:54:28.709Z,54
2022-07-31T04:57:28.721Z,54
2022-07-31T05:00:28.719Z,54
2022-07-31T05:03:28.715Z,54
2022-07-31T05:06:28.731Z,54
2022-07-31T05:09:28.732Z,54
2022-07-31T05:12:28.729Z,53
2022-07-31T05:15:28.775Z,53
2022-07-31T05:18:28.729Z,53
2022-07-31T05:21:28.713Z,53
2022-07-31T05:24:33.136Z,53
2022-07-31T05:27:31.974Z,53
2022-07-31T05:30:30.302Z,53
2022-07-31T05:33:28.727Z,53
2022-07-31T05:36:28.725Z,53
2022-07-31T05:39:28.733Z,53
2022-07-31T05:42:28.736Z,53
2022-07-31T05:45:28.724Z,53
2022-07-31T05:48:28.766Z,53
2022-07-31T05:51:28.729Z,53
2022-07-31T05:54:28.723Z,53
2022-07-31T05:57:33.905Z,53
2022-07-31T06:00:28.757Z,53
2022-07-31T06:03:28.739Z,53
2022-07-31T06:06:28.735Z,53
2022-07-31T06:09:28.745Z,53
2022-07-31T06:12:28.739Z,53
2022-07-31T06:15:31.078Z,53
2022-07-31T06:18:28.726Z,53
2022-07-31T06:21:30.707Z,53
2022-07-31T06:24:28.736Z,53
2022-07-31T06:27:33.264Z,53
2022-07-31T06:30:28.736Z,53
2022-07-31T06:33:36.899Z,53
2022-07-31T06:36:28.733Z,53
2022-07-31T06:39:28.731Z,53
2022-07-31T06:42:28.742Z,53
2022-07-31T06:45:48.769Z,53
2022-07-31T06:48:28.739Z,53
2022-07-31T06:51:31.583Z,54
2022-07-31T06:54:28.733Z,54
2022-07-31T06:57:28.747Z,54
2022-07-31T07:00:28.737Z,54
2022-07-31T07:03:28.742Z,54
2022-07-31T07:06:28.737Z,54
2022-07-31T07:09:28.740Z,53
2022-07-31T07:12:28.755Z,54
2022-07-31T07:15:28.737Z,53
2022-07-31T07:18:28.735Z,53
2022-07-31T07:21:28.734Z,53
2022-07-31T07:24:28.734Z,53
2022-07-31T07:27:28.762Z,53
2022-07-31T07:30:28.760Z,54
2022-07-31T07:33:40.324Z,54
2022-07-31T07:36:28.750Z,54
2022-07-31T07:39:28.745Z,54
2022-07-31T07:42:28.758Z,54
2022-07-31T07:45:28.742Z,54
2022-07-31T07:48:28.748Z,54
2022-07-31T07:54:28.738Z,54
2022-07-31T07:57:28.743Z,54
2022-07-31T08:00:28.741Z,54
2022-07-31T08:03:50.610Z,54
2022-07-31T08:06:28.737Z,53
2022-07-31T08:09:28.748Z,53
2022-07-31T08:12:28.764Z,53
2022-07-31T08:15:28.748Z,54
2022-07-31T08:18:28.855Z,54
2022-07-31T08:21:28.759Z,54
2022-07-31T08:24:28.753Z,54
2022-07-31T08:27:38.021Z,53
2022-07-31T08:30:30.711Z,54
2022-07-31T08:33:28.765Z,53
2022-07-31T08:36:28.751Z,53
2022-07-31T08:39:28.752Z,53
2022-07-31T08:42:28.770Z,54
2022-07-31T08:45:28.750Z,54
2022-07-31T08:48:28.772Z,54
2022-07-31T08:51:28.751Z,54
2022-07-31T08:54:28.755Z,53
2022-07-31T08:57:28.767Z,53
2022-07-31T09:00:28.807Z,53
2022-07-31T09:03:28.783Z,53
2022-07-31T09:06:28.759Z,52
2022-07-31T09:09:41.403Z,52
2022-07-31T09:12:32.520Z,52
2022-07-31T09:15:28.759Z,52
2022-07-31T09:18:28.761Z,51
2022-07-31T09:21:28.758Z,51
2022-07-31T09:24:28.756Z,51
2022-07-31T09:27:28.787Z,51
2022-07-31T09:30:28.756Z,51
2022-07-31T09:33:28.775Z,51
2022-07-31T09:36:28.760Z,51
2022-07-31T09:39:28.765Z,51
2022-07-31T09:42:28.776Z,50
2022-07-31T09:45:28.763Z,50
2022-07-31T09:48:29.045Z,49
2022-07-31T09:51:28.763Z,49
2022-07-31T09:54:28.763Z,49
2022-07-31T09:57:28.780Z,49
2022-07-31T10:00:28.765Z,49
2022-07-31T10:03:28.762Z,49
2022-07-31T10:06:28.761Z,49
2022-07-31T10:09:28.771Z,48.5
2022-07-31T10:12:28.769Z,48.5
2022-07-31T10:15:28.808Z,48.5
2022-07-31T10:18:35.476Z,48.5
2022-07-31T10:21:28.782Z,48.5
2022-07-31T10:24:28.825Z,48
2022-07-31T10:27:28.761Z,48
2022-07-31T10:30:28.966Z,48
2022-07-31T10:33:43.357Z,48
2022-07-31T10:36:28.770Z,48
2022-07-31T10:42:28.782Z,48.5
2022-07-31T10:45:28.772Z,48.5
2022-07-31T10:48:28.771Z,48.5
2022-07-31T10:51:28.788Z,48.5
2022-07-31T10:54:28.781Z,48.5
2022-07-31T10:57:28.787Z,48.5
2022-07-31T11:00:29.862Z,48.5
2022-07-31T11:03:28.774Z,48.5
2022-07-31T11:06:28.778Z,48.5
2022-07-31T11:09:28.782Z,49
2022-07-31T11:12:28.776Z,49
2022-07-31T11:15:28.789Z,49
2022-07-31T11:18:31.198Z,49
2022-07-31T11:21:38.411Z,49
2022-07-31T11:24:28.764Z,49
2022-07-31T11:27:28.790Z,49
2022-07-31T11:30:28.781Z,49
2022-07-31T11:33:28.790Z,49
2022-07-31T11:36:28.790Z,49
2022-07-31T11:39:34.991Z,49
2022-07-31T11:42:31.076Z,49
2022-07-31T11:45:28.799Z,49
2022-07-31T11:48:28.800Z,49
2022-07-31T11:51:28.795Z,49
2022-07-31T11:54:28.792Z,49
2022-07-31T11:57:28.789Z,48
2022-07-31T12:00:30.045Z,48
2022-07-31T12:03:28.791Z,48
2022-07-31T12:10:00.221Z,48
2022-07-31T12:12:28.805Z,48
2022-07-31T12:15:28.796Z,48
2022-07-31T12:18:28.790Z,48
2022-07-31T12:21:28.798Z,48
2022-07-31T12:24:28.803Z,48
2022-07-31T12:27:28.801Z,48
2022-07-31T12:30:30.151Z,48
2022-07-31T12:33:28.799Z,48
2022-07-31T12:39:47.645Z,47
2022-07-31T12:42:30.685Z,47
2022-07-31T12:45:28.804Z,47
2022-07-31T12:48:28.805Z,47
2022-07-31T12:51:44.449Z,47
2022-07-31T12:54:28.803Z,47
2022-07-31T12:57:28.802Z,47
2022-07-31T13:00:28.801Z,47
2022-07-31T13:03:39.144Z,47
2022-07-31T13:06:28.790Z,47
2022-07-31T13:09:28.784Z,46
2022-07-31T13:12:28.805Z,46
2022-07-31T13:15:28.802Z,46
2022-07-31T13:18:28.793Z,46
2022-07-31T13:21:28.791Z,46
2022-07-31T13:24:28.788Z,46
2022-07-31T13:27:28.803Z,46
2022-07-31T13:30:28.856Z,46
2022-07-31T13:33:28.796Z,46
2022-07-31T13:36:30.758Z,45
2022-07-31T13:39:28.811Z,45
2022-07-31T13:42:29.847Z,45
2022-07-31T13:45:28.801Z,45
2022-07-31T13:48:28.800Z,45
2022-07-31T13:51:29.184Z,45
2022-07-31T13:54:28.809Z,45
2022-07-31T13:57:28.802Z,45
2022-07-31T14:00:28.813Z,45
2022-07-31T14:03:28.797Z,45
2022-07-31T14:06:28.813Z,45
2022-07-31T14:09:28.805Z,45
2022-07-31T14:12:28.794Z,45
2022-07-31T14:15:30.249Z,45
2022-07-31T14:18:28.796Z,45
2022-07-31T14:21:28.816Z,45
2022-07-31T14:24:28.815Z,45
2022-07-31T14:27:28.803Z,45
2022-07-31T14:30:28.802Z,45
2022-07-31T14:33:28.797Z,45
2022-07-31T14:36:28.805Z,45
2022-07-31T14:39:28.813Z,45
2022-07-31T14:42:28.807Z,45
2022-07-31T14:45:28.793Z,45
2022-07-31T14:48:28.804Z,45
2022-07-31T14:51:28.803Z,45
2022-07-31T14:54:28.806Z,45
2022-07-31T14:57:28.814Z,45
2022-07-31T15:00:28.819Z,45
2022-07-31T15:03:28.819Z,45
2022-07-31T15:06:37.321Z,45
2022-07-31T15:09:28.796Z,46
2022-07-31T15:12:28.837Z,45
2022-07-31T15:15:28.814Z,45
2022-07-31T15:18:28.816Z,45
2022-07-31T15:21:28.819Z,45
2022-07-31T15:24:28.806Z,45
2022-07-31T15:27:28.818Z,45
2022-07-31T15:30:28.820Z,45
2022-07-31T15:33:28.811Z,44
2022-07-31T15:36:28.819Z,44
2022-07-31T15:39:28.804Z,44
2022-07-31T15:42:28.806Z,44
2022-07-31T15:45:28.808Z,44
2022-07-31T15:48:28.824Z,44
2022-07-31T15:51:28.820Z,44
2022-07-31T15:54:28.807Z,44
2022-07-31T15:57:28.818Z,44
2022-07-31T16:00:28.814Z,44
2022-07-31T16:03:29.917Z,44
2022-07-31T16:06:32.136Z,44
2022-07-31T16:09:28.804Z,45
2022-07-31T16:12:28.809Z,45
2022-07-31T16:18:28.834Z,45
2022-07-31T16:21:28.821Z,45
2022-07-31T16:24:28.808Z,45
2022-07-31T16:27:28.803Z,45
2022-07-31T16:30:28.832Z,45
2022-07-31T16:33:28.811Z,45
2022-07-31T16:36:28.809Z,45
2022-07-31T16:39:28.819Z,45
2022-07-31T16:42:28.817Z,45
2022-07-31T16:45:28.812Z,45
2022-07-31T16:48:28.819Z,45
2022-07-31T16:51:28.815Z,45
2022-07-31T16:54:28.811Z,45
2022-07-31T16:57:28.819Z,45
2022-07-31T17:00:28.970Z,45
2022-07-31T17:03:31.195Z,45
2022-07-31T17:06:34.546Z,45
2022-07-31T17:09:28.819Z,45
2022-07-31T17:12:28.821Z,45
2022-07-31T17:15:28.822Z,45
2022-07-31T17:18:28.821Z,45
2022-07-31T17:21:30.943Z,45
2022-07-31T17:24:28.830Z,45
2022-07-31T17:27:28.824Z,45
2022-07-31T17:30:28.815Z,45
2022-07-31T17:33:49.685Z,46
2022-07-31T17:36:28.837Z,46
2022-07-31T17:39:30.953Z,46
2022-07-31T17:42:28.823Z,46
2022-07-31T17:45:37.235Z,46
2022-07-31T17:48:28.831Z,46
2022-07-31T17:51:28.818Z,46
2022-07-31T17:54:28.913Z,46
2022-07-31T17:57:28.848Z,46
2022-07-31T18:00:32.435Z,46
2022-07-31T18:03:28.850Z,46
2022-07-31T18:06:28.866Z,46
2022-07-31T18:09:28.857Z,46
2022-07-31T18:12:28.844Z,46
2022-07-31T18:15:34.938Z,46
2022-07-31T18:18:28.853Z,46
2022-07-31T18:21:28.851Z,46
2022-07-31T18:24:28.863Z,46
2022-07-31T18:27:28.860Z,46
2022-07-31T18:30:30.403Z,46
2022-07-31T18:33:28.854Z,46
2022-07-31T18:36:28.855Z,46
2022-07-31T18:39:28.860Z,46
2022-07-31T18:42:28.864Z,46
2022-07-31T18:45:28.855Z,46
2022-07-31T18:48:28.855Z,46
2022-07-31T18:51:28.929Z,46
2022-07-31T18:54:28.866Z,47
2022-07-31T18:57:28.867Z,47
2022-07-31T19:00:28.866Z,47
2022-07-31T19:03:28.870Z,47
2022-07-31T19:06:28.861Z,47
2022-07-31T19:09:28.875Z,47
2022-07-31T19:12:28.863Z,47
2022-07-31T19:15:28.874Z,47
2022-07-31T19:18:29.103Z,47
2022-07-31T19:21:41.901Z,48
2022-07-31T19:24:28.903Z,48
2022-07-31T19:27:47.940Z,49
2022-07-31T19:30:28.888Z,49
2022-07-31T19:33:28.897Z,49
2022-07-31T19:36:28.884Z,50
2022-07-31T19:39:28.902Z,50
2022-07-31T19:42:28.891Z,50
2022-07-31T19:45:28.907Z,50
2022-07-31T19:48:28.898Z,50
2022-07-31T19:51:28.893Z,50
2022-07-31T19:54:28.908Z,50
2022-07-31T19:57:28.920Z,51
2022-07-31T20:00:28.897Z,51
2022-07-31T20:03:28.904Z,51
2022-07-31T20:06:29.053Z,51
2022-07-31T20:09:28.902Z,51
2022-07-31T20:12:28.899Z,51
2022-07-31T20:15:50.796Z,51
2022-07-31T20:18:29.522Z,52
2022-07-31T20:21:31.867Z,52
2022-07-31T20:24:28.898Z,52
2022-07-31T20:27:28.912Z,52
2022-07-31T20:30:28.897Z,52
2022-07-31T20:33:28.902Z,52
2022-07-31T20:36:28.907Z,52
2022-07-31T20:39:33.525Z,52
2022-07-31T20:42:28.921Z,52
2022-07-31T20:45:28.915Z,53
2022-07-31T20:48:28.927Z,53
2022-07-31T20:51:28.916Z,53
2022-07-31T20:54:34.272Z,53
2022-07-31T20:57:28.924Z,53
2022-07-31T21:00:28.916Z,53
2022-07-31T21:03:28.918Z,54
2022-07-31T21:06:28.967Z,54
2022-07-31T21:09:28.933Z,54
2022-07-31T21:12:29.662Z,54
2022-07-31T21:15:41.409Z,54
2022-07-31T21:18:32.792Z,53
2022-07-31T21:21:28.923Z,53
2022-07-31T21:24:28.931Z,54
2022-07-31T21:27:28.924Z,54
2022-07-31T21:30:28.928Z,54
2022-07-31T21:33:28.936Z,54
2022-07-31T21:36:28.928Z,54
2022-07-31T21:39:28.927Z,54
2022-07-31T21:42:28.929Z,54
2022-07-31T21:45:29.665Z,54
2022-07-31T21:48:28.931Z,54
2022-07-31T21:51:28.934Z,54
2022-07-31T21:54:28.931Z,54
2022-07-31T21:57:28.934Z,54
2022-07-31T22:00:29.813Z,54
2022-07-31T22:03:28.931Z,54
2022-07-31T22:06:28.920Z,54
2022-07-31T22:09:28.942Z,54
2022-07-31T22:12:28.932Z,54
2022-07-31T22:15:50.823Z,54
2022-07-31T22:18:29.043Z,54
2022-07-31T22:21:28.930Z,54
2022-07-31T22:24:28.932Z,54
2022-07-31T22:27:28.929Z,54
2022-07-31T22:30:28.922Z,54
2022-07-31T22:33:28.951Z,54
2022-07-31T22:36:28.929Z,54
2022-07-31T22:39:28.936Z,54
2022-07-31T22:42:28.934Z,54
2022-07-31T22:45:28.929Z,54
2022-07-31T22:48:28.933Z,54
2022-07-31T22:51:28.933Z,54
2022-07-31T22:54:28.933Z,54
2022-07-31T22:57:28.928Z,54
2022-07-31T23:00:28.948Z,54
2022-07-31T23:03:28.934Z,54
2022-07-31T23:06:30.350Z,54
2022-07-31T23:09:28.931Z,54
2022-07-31T23:12:29.326Z,54
2022-07-31T23:15:28.924Z,54
2022-07-31T23:18:28.936Z,54
2022-07-31T23:21:28.925Z,54
2022-07-31T23:24:28.946Z,54
2022-07-31T23:27:28.930Z,55
2022-07-31T23:30:28.950Z,55
2022-07-31T23:33:28.927Z,54
2022-07-31T23:36:28.947Z,55
2022-07-31T23:39:28.938Z,55
2022-07-31T23:42:28.935Z,55
2022-07-31T23:45:28.923Z,55
2022-07-31T23:48:29.345Z,55
2022-07-31T23:51:28.927Z,55
2022-07-31T23:54:28.926Z,55
2022-07-31T23:57:28.934Z,55
